Azov, Russia
Current Conditions -  °F | °C
As of 9:00 PM on Tuesday 21 Oct 2014 (Local Time) from URRR Reporting Station
Rain Showers Rain Showers  
Wind Chill: 55°   Ceiling: 1300
Heat Index: 55°   Visibility: 6mi
Dew Point: 52°   Wind: 18mph
Humidity: 88%   Direction: 240°WSW
Pressure: 29.77"   Gusts: 25mph
Location:  47.11°N, 39.41°E
Report Text: URRR 211800Z 24008G11MPS 9999 -SHRA BKN013 SCT033CB OVC10013/11 Q1008 22120060 NOSIG
Loading
Personal Weather Stations






























Interactive Weather Map
Tropical Storm Tracking
New forecast layout! Learn more

10-Day Weather Forecast

Advertisements
Track Severe Weather on mobile